sensor_id;sensor_type;location;lat;lon;timestamp;pressure;altitude;pressure_sealevel;temperature;humidity
41703;BME280;861;48.808;9.006;2022-12-18T00:02:33;98144.13;;;-5.30;60.39
41703;BME280;861;48.808;9.006;2022-12-18T00:05:19;98140.16;;;-5.33;61.48
41703;BME280;861;48.808;9.006;2022-12-18T00:07:45;98141.75;;;-5.68;62.47
41703;BME280;861;48.808;9.006;2022-12-18T00:10:11;98142.97;;;-5.44;62.17
41703;BME280;861;48.808;9.006;2022-12-18T00:12:38;98143.28;;;-5.41;59.98
41703;BME280;861;48.808;9.006;2022-12-18T00:15:05;98152.31;;;-5.37;60.32
41703;BME280;861;48.808;9.006;2022-12-18T00:17:31;98147.69;;;-5.51;60.27
41703;BME280;861;48.808;9.006;2022-12-18T00:19:58;98138.69;;;-5.50;60.98
41703;BME280;861;48.808;9.006;2022-12-18T00:22:24;98148.03;;;-5.43;60.73
41703;BME280;861;48.808;9.006;2022-12-18T00:24:50;98144.00;;;-5.50;61.57
41703;BME280;861;48.808;9.006;2022-12-18T00:27:16;98138.41;;;-5.54;61.43
41703;BME280;861;48.808;9.006;2022-12-18T00:29:42;98144.31;;;-5.47;61.06
41703;BME280;861;48.808;9.006;2022-12-18T00:32:09;98148.22;;;-5.54;61.50
41703;BME280;861;48.808;9.006;2022-12-18T00:34:35;98145.59;;;-5.49;61.34
41703;BME280;861;48.808;9.006;2022-12-18T00:37:01;98142.72;;;-5.43;60.60
41703;BME280;861;48.808;9.006;2022-12-18T00:39:28;98150.03;;;-5.60;60.15
41703;BME280;861;48.808;9.006;2022-12-18T00:41:54;98166.16;;;-5.66;59.82
41703;BME280;861;48.808;9.006;2022-12-18T00:44:39;98155.50;;;-5.71;59.49
41703;BME280;861;48.808;9.006;2022-12-18T00:47:05;98144.91;;;-6.08;60.38
41703;BME280;861;48.808;9.006;2022-12-18T00:49:31;98140.78;;;-5.94;61.04
41703;BME280;861;48.808;9.006;2022-12-18T00:51:58;98142.59;;;-5.99;61.11
41703;BME280;861;48.808;9.006;2022-12-18T00:54:24;98158.44;;;-6.04;61.36
41703;BME280;861;48.808;9.006;2022-12-18T00:56:50;98148.16;;;-6.01;61.49
41703;BME280;861;48.808;9.006;2022-12-18T00:59:18;98150.66;;;-6.16;62.41
41703;BME280;861;48.808;9.006;2022-12-18T01:01:46;98160.56;;;-6.06;63.08
41703;BME280;861;48.808;9.006;2022-12-18T01:04:13;98151.38;;;-5.94;62.59
41703;BME280;861;48.808;9.006;2022-12-18T01:06:40;98155.84;;;-5.99;62.58
41703;BME280;861;48.808;9.006;2022-12-18T01:09:07;98149.09;;;-5.80;62.27
41703;BME280;861;48.808;9.006;2022-12-18T01:11:33;98144.75;;;-5.96;62.70
41703;BME280;861;48.808;9.006;2022-12-18T01:13:59;98145.59;;;-6.22;64.05
41703;BME280;861;48.808;9.006;2022-12-18T01:16:26;98142.31;;;-6.03;62.85
41703;BME280;861;48.808;9.006;2022-12-18T01:18:54;98146.28;;;-6.05;62.84
41703;BME280;861;48.808;9.006;2022-12-18T01:21:23;98148.03;;;-5.79;61.98
41703;BME280;861;48.808;9.006;2022-12-18T01:23:56;98158.38;;;-5.83;61.74
41703;BME280;861;48.808;9.006;2022-12-18T01:26:26;98155.34;;;-5.96;61.41
41703;BME280;861;48.808;9.006;2022-12-18T01:28:57;98139.41;;;-6.01;61.27
41703;BME280;861;48.808;9.006;2022-12-18T01:31:33;98139.41;;;-6.01;61.77
41703;BME280;861;48.808;9.006;2022-12-18T01:34:04;98147.84;;;-6.04;61.45
41703;BME280;861;48.808;9.006;2022-12-18T01:36:36;98144.69;;;-6.01;61.77
41703;BME280;861;48.808;9.006;2022-12-18T01:39:11;98151.16;;;-6.19;61.88
41703;BME280;861;48.808;9.006;2022-12-18T01:41:40;98152.03;;;-6.13;62.32
41703;BME280;861;48.808;9.006;2022-12-18T01:45:06;98160.78;;;-6.13;62.24
41703;BME280;861;48.808;9.006;2022-12-18T01:48:02;98163.38;;;-6.18;62.22
41703;BME280;861;48.808;9.006;2022-12-18T01:50:42;98161.47;;;-6.22;62.22
41703;BME280;861;48.808;9.006;2022-12-18T01:53:22;98155.81;;;-6.31;62.52
41703;BME280;861;48.808;9.006;2022-12-18T01:55:59;98142.63;;;-6.26;62.80
41703;BME280;861;48.808;9.006;2022-12-18T01:59:04;98146.72;;;-6.13;62.72
41703;BME280;861;48.808;9.006;2022-12-18T02:01:36;98131.84;;;-6.14;62.21
41703;BME280;861;48.808;9.006;2022-12-18T02:04:26;98135.31;;;-6.14;62.36
41703;BME280;861;48.808;9.006;2022-12-18T02:10:47;98141.31;;;-6.23;62.34
41703;BME280;861;48.808;9.006;2022-12-18T02:14:07;98155.19;;;-6.16;62.42
41703;BME280;861;48.808;9.006;2022-12-18T02:17:25;98156.22;;;-6.17;62.74
41703;BME280;861;48.808;9.006;2022-12-18T02:20:19;98144.78;;;-6.23;63.59
41703;BME280;861;48.808;9.006;2022-12-18T02:26:29;98144.28;;;-6.20;63.59
41703;BME280;861;48.808;9.006;2022-12-18T02:29:16;98150.41;;;-6.14;63.49
41703;BME280;861;48.808;9.006;2022-12-18T02:31:59;98153.50;;;-5.96;63.12
41703;BME280;861;48.808;9.006;2022-12-18T02:34:39;98154.94;;;-5.83;63.21
41703;BME280;861;48.808;9.006;2022-12-18T02:37:15;98151.44;;;-5.89;62.75
41703;BME280;861;48.808;9.006;2022-12-18T02:39:49;98155.69;;;-5.88;62.71
41703;BME280;861;48.808;9.006;2022-12-18T02:42:19;98156.78;;;-5.84;62.77
41703;BME280;861;48.808;9.006;2022-12-18T02:44:51;98156.00;;;-6.11;63.15
41703;BME280;861;48.808;9.006;2022-12-18T02:47:24;98146.63;;;-5.92;63.02
41703;BME280;861;48.808;9.006;2022-12-18T02:53:41;98166.94;;;-5.71;62.42
41703;BME280;861;48.808;9.006;2022-12-18T02:56:35;98164.38;;;-5.56;62.01
41703;BME280;861;48.808;9.006;2022-12-18T02:59:31;98158.78;;;-5.59;62.80
41703;BME280;861;48.808;9.006;2022-12-18T03:02:55;98159.56;;;-6.00;64.49
41703;BME280;861;48.808;9.006;2022-12-18T03:06:59;98162.19;;;-5.69;64.28
41703;BME280;861;48.808;9.006;2022-12-18T03:09:11;98161.00;;;-5.83;64.13
41703;BME280;861;48.808;9.006;2022-12-18T03:12:04;98168.59;;;-5.60;64.37
41703;BME280;861;48.808;9.006;2022-12-18T03:15:20;98191.09;;;-5.31;63.30
41703;BME280;861;48.808;9.006;2022-12-18T03:18:25;98185.13;;;-5.48;63.31
41703;BME280;861;48.808;9.006;2022-12-18T03:21:06;98173.81;;;-5.70;64.90
41703;BME280;861;48.808;9.006;2022-12-18T03:23:48;98179.81;;;-5.84;65.37
41703;BME280;861;48.808;9.006;2022-12-18T03:26:26;98181.31;;;-5.62;65.11
41703;BME280;861;48.808;9.006;2022-12-18T03:29:09;98181.34;;;-5.15;64.34
41703;BME280;861;48.808;9.006;2022-12-18T03:31:55;98185.53;;;-4.83;63.94
41703;BME280;861;48.808;9.006;2022-12-18T03:34:39;98185.63;;;-4.57;62.85
41703;BME280;861;48.808;9.006;2022-12-18T03:37:08;98182.44;;;-4.54;62.55
41703;BME280;861;48.808;9.006;2022-12-18T03:39:36;98177.69;;;-4.47;62.08
41703;BME280;861;48.808;9.006;2022-12-18T03:45:23;98177.28;;;-5.33;64.21
41703;BME280;861;48.808;9.006;2022-12-18T03:48:31;98181.25;;;-4.89;64.44
41703;BME280;861;48.808;9.006;2022-12-18T03:52:04;98185.69;;;-4.37;63.15
41703;BME280;861;48.808;9.006;2022-12-18T03:54:38;98174.28;;;-4.33;63.50
41703;BME280;861;48.808;9.006;2022-12-18T03:57:19;98178.75;;;-4.48;63.10
41703;BME280;861;48.808;9.006;2022-12-18T03:59:57;98169.16;;;-4.59;63.10
41703;BME280;861;48.808;9.006;2022-12-18T04:02:34;98177.16;;;-4.49;63.15
41703;BME280;861;48.808;9.006;2022-12-18T04:05:08;98175.75;;;-4.67;64.07
41703;BME280;861;48.808;9.006;2022-12-18T04:07:39;98165.59;;;-4.80;65.37
41703;BME280;861;48.808;9.006;2022-12-18T04:10:10;98168.63;;;-4.56;64.41
41703;BME280;861;48.808;9.006;2022-12-18T04:12:38;98167.47;;;-4.81;64.77
41703;BME280;861;48.808;9.006;2022-12-18T04:15:07;98179.28;;;-4.51;64.38
41703;BME280;861;48.808;9.006;2022-12-18T04:17:34;98175.09;;;-4.17;63.25
41703;BME280;861;48.808;9.006;2022-12-18T04:20:01;98172.50;;;-3.97;62.22
41703;BME280;861;48.808;9.006;2022-12-18T04:22:28;98166.09;;;-4.06;61.54
41703;BME280;861;48.808;9.006;2022-12-18T04:24:54;98176.72;;;-4.16;61.73
41703;BME280;861;48.808;9.006;2022-12-18T04:27:20;98188.63;;;-4.34;61.90
41703;BME280;861;48.808;9.006;2022-12-18T04:29:47;98183.06;;;-4.32;61.80
41703;BME280;861;48.808;9.006;2022-12-18T04:32:13;98187.00;;;-4.45;62.16
41703;BME280;861;48.808;9.006;2022-12-18T04:34:39;98177.97;;;-4.39;62.22
41703;BME280;861;48.808;9.006;2022-12-18T04:37:06;98181.66;;;-4.50;62.40
41703;BME280;861;48.808;9.006;2022-12-18T04:39:32;98185.91;;;-4.54;62.00
41703;BME280;861;48.808;9.006;2022-12-18T04:41:58;98178.88;;;-4.85;62.90
41703;BME280;861;48.808;9.006;2022-12-18T04:44:25;98170.13;;;-4.86;63.05
41703;BME280;861;48.808;9.006;2022-12-18T04:46:51;98166.97;;;-4.73;63.89
41703;BME280;861;48.808;9.006;2022-12-18T04:49:18;98150.78;;;-4.66;63.53
41703;BME280;861;48.808;9.006;2022-12-18T04:51:44;98156.59;;;-4.74;62.98
41703;BME280;861;48.808;9.006;2022-12-18T04:54:10;98157.16;;;-4.67;62.99
41703;BME280;861;48.808;9.006;2022-12-18T04:56:37;98154.22;;;-4.76;62.89
41703;BME280;861;48.808;9.006;2022-12-18T04:59:03;98157.38;;;-4.79;63.23
41703;BME280;861;48.808;9.006;2022-12-18T05:01:29;98157.06;;;-4.92;63.51
41703;BME280;861;48.808;9.006;2022-12-18T05:03:55;98155.47;;;-4.88;63.44
41703;BME280;861;48.808;9.006;2022-12-18T05:06:22;98160.31;;;-4.80;63.46
41703;BME280;861;48.808;9.006;2022-12-18T05:08:48;98164.63;;;-4.64;63.41
41703;BME280;861;48.808;9.006;2022-12-18T05:11:15;98167.47;;;-4.81;63.52
41703;BME280;861;48.808;9.006;2022-12-18T05:13:45;98168.00;;;-4.79;63.31
41703;BME280;861;48.808;9.006;2022-12-18T05:16:14;98169.84;;;-4.84;62.86
41703;BME280;861;48.808;9.006;2022-12-18T05:18:42;98172.97;;;-4.97;63.61
41703;BME280;861;48.808;9.006;2022-12-18T05:21:08;98178.38;;;-4.77;62.59
41703;BME280;861;48.808;9.006;2022-12-18T05:23:35;98178.88;;;-4.85;62.93
41703;BME280;861;48.808;9.006;2022-12-18T05:26:06;98184.97;;;-4.85;62.92
41703;BME280;861;48.808;9.006;2022-12-18T05:28:36;98182.25;;;-4.95;63.23
41703;BME280;861;48.808;9.006;2022-12-18T05:31:04;98188.31;;;-5.04;63.43
41703;BME280;861;48.808;9.006;2022-12-18T05:33:34;98188.38;;;-4.94;62.80
41703;BME280;861;48.808;9.006;2022-12-18T05:36:07;98191.22;;;-5.06;63.48
41703;BME280;861;48.808;9.006;2022-12-18T05:38:38;98192.38;;;-4.92;63.20
41703;BME280;861;48.808;9.006;2022-12-18T05:41:07;98190.06;;;-4.78;63.30
41703;BME280;861;48.808;9.006;2022-12-18T05:43:38;98188.75;;;-4.71;63.78
41703;BME280;861;48.808;9.006;2022-12-18T05:46:11;98179.19;;;-4.77;63.91
41703;BME280;861;48.808;9.006;2022-12-18T05:48:42;98182.84;;;-4.88;64.42
41703;BME280;861;48.808;9.006;2022-12-18T05:51:16;98186.94;;;-4.60;63.85
41703;BME280;861;48.808;9.006;2022-12-18T05:53:45;98179.75;;;-4.64;63.60
41703;BME280;861;48.808;9.006;2022-12-18T05:56:19;98182.41;;;-4.64;63.71
41703;BME280;861;48.808;9.006;2022-12-18T05:58:51;98182.16;;;-4.63;63.33
41703;BME280;861;48.808;9.006;2022-12-18T06:01:26;98189.53;;;-4.75;64.09
41703;BME280;861;48.808;9.006;2022-12-18T06:03:53;98187.69;;;-4.75;64.97
41703;BME280;861;48.808;9.006;2022-12-18T06:06:26;98193.84;;;-4.64;64.55
41703;BME280;861;48.808;9.006;2022-12-18T06:08:55;98192.53;;;-4.56;64.63
41703;BME280;861;48.808;9.006;2022-12-18T06:11:26;98188.75;;;-4.71;64.84
41703;BME280;861;48.808;9.006;2022-12-18T06:13:55;98195.50;;;-4.38;64.00
41703;BME280;861;48.808;9.006;2022-12-18T06:16:22;98183.03;;;-4.37;63.73
41703;BME280;861;48.808;9.006;2022-12-18T06:18:49;98182.53;;;-4.29;64.07
41703;BME280;861;48.808;9.006;2022-12-18T06:21:15;98194.78;;;-4.18;62.93
41703;BME280;861;48.808;9.006;2022-12-18T06:23:41;98195.84;;;-4.24;63.51
41703;BME280;861;48.808;9.006;2022-12-18T06:26:12;98196.59;;;-4.34;63.78
41703;BME280;861;48.808;9.006;2022-12-18T06:28:39;98196.31;;;-4.37;64.07
41703;BME280;861;48.808;9.006;2022-12-18T06:31:06;98200.09;;;-4.18;63.61
41703;BME280;861;48.808;9.006;2022-12-18T06:33:35;98208.38;;;-4.00;63.42
41703;BME280;861;48.808;9.006;2022-12-18T06:36:11;98207.06;;;-3.92;62.49
41703;BME280;861;48.808;9.006;2022-12-18T06:38:43;98206.25;;;-4.03;63.17
41703;BME280;861;48.808;9.006;2022-12-18T06:41:19;98198.03;;;-3.81;61.37
41703;BME280;861;48.808;9.006;2022-12-18T06:43:46;98199.66;;;-3.75;61.05
41703;BME280;861;48.808;9.006;2022-12-18T06:46:14;98201.44;;;-4.11;61.31
41703;BME280;861;48.808;9.006;2022-12-18T06:48:40;98205.38;;;-4.28;62.09
41703;BME280;861;48.808;9.006;2022-12-18T06:51:07;98209.09;;;-4.29;62.48
41703;BME280;861;48.808;9.006;2022-12-18T06:53:33;98210.16;;;-4.25;62.58
41703;BME280;861;48.808;9.006;2022-12-18T06:56:06;98215.78;;;-4.17;62.06
41703;BME280;861;48.808;9.006;2022-12-18T06:58:33;98212.84;;;-4.20;61.98
41703;BME280;861;48.808;9.006;2022-12-18T07:01:03;98216.59;;;-4.06;61.69
41703;BME280;861;48.808;9.006;2022-12-18T07:03:32;98203.59;;;-4.03;61.41
41703;BME280;861;48.808;9.006;2022-12-18T07:05:58;98224.84;;;-4.08;61.34
41703;BME280;861;48.808;9.006;2022-12-18T07:08:25;98230.63;;;-4.36;62.01
41703;BME280;861;48.808;9.006;2022-12-18T07:10:51;98231.72;;;-4.22;62.39
41703;BME280;861;48.808;9.006;2022-12-18T07:13:18;98233.56;;;-4.32;61.45
41703;BME280;861;48.808;9.006;2022-12-18T07:15:44;98220.31;;;-4.12;61.04
41703;BME280;861;48.808;9.006;2022-12-18T07:18:11;98226.41;;;-4.22;60.63
41703;BME280;861;48.808;9.006;2022-12-18T07:20:37;98234.03;;;-4.45;61.93
41703;BME280;861;48.808;9.006;2022-12-18T07:23:04;98232.84;;;-4.70;62.31
41703;BME280;861;48.808;9.006;2022-12-18T07:25:35;98233.78;;;-4.96;62.73
41703;BME280;861;48.808;9.006;2022-12-18T07:28:02;98236.28;;;-4.79;62.63
41703;BME280;861;48.808;9.006;2022-12-18T07:30:29;98246.25;;;-4.96;62.89
41703;BME280;861;48.808;9.006;2022-12-18T07:32:56;98241.59;;;-4.79;62.79
41703;BME280;861;48.808;9.006;2022-12-18T07:35:22;98244.41;;;-4.96;62.93
41703;BME280;861;48.808;9.006;2022-12-18T07:37:48;98245.38;;;-4.60;62.21
41703;BME280;861;48.808;9.006;2022-12-18T07:40:14;98240.53;;;-4.16;60.33
41703;BME280;861;48.808;9.006;2022-12-18T07:42:40;98239.41;;;-4.30;60.40
41703;BME280;861;48.808;9.006;2022-12-18T07:45:07;98241.31;;;-4.16;60.34
41703;BME280;861;48.808;9.006;2022-12-18T07:47:36;98237.59;;;-4.15;60.24
41703;BME280;861;48.808;9.006;2022-12-18T07:50:04;98237.31;;;-4.18;60.48
41703;BME280;861;48.808;9.006;2022-12-18T07:52:31;98241.84;;;-4.19;60.94
41703;BME280;861;48.808;9.006;2022-12-18T07:54:57;98248.78;;;-4.08;61.78
41703;BME280;861;48.808;9.006;2022-12-18T07:57:23;98253.81;;;-4.16;62.86
41703;BME280;861;48.808;9.006;2022-12-18T07:59:49;98249.84;;;-4.09;63.49
41703;BME280;861;48.808;9.006;2022-12-18T08:02:34;98244.75;;;-4.20;64.75
41703;BME280;861;48.808;9.006;2022-12-18T08:05:18;98243.09;;;-4.41;66.54
41703;BME280;861;48.808;9.006;2022-12-18T08:08:06;98246.28;;;-4.44;67.39
41703;BME280;861;48.808;9.006;2022-12-18T08:10:53;98243.63;;;-4.39;67.96
41703;BME280;861;48.808;9.006;2022-12-18T08:13:39;98257.03;;;-4.04;67.13
41703;BME280;861;48.808;9.006;2022-12-18T08:16:26;98244.59;;;-3.84;66.78
41703;BME280;861;48.808;9.006;2022-12-18T08:19:04;98251.25;;;-3.76;66.28
41703;BME280;861;48.808;9.006;2022-12-18T08:21:31;98236.84;;;-3.90;66.78
41703;BME280;861;48.808;9.006;2022-12-18T08:24:00;98249.34;;;-4.01;67.24
41703;BME280;861;48.808;9.006;2022-12-18T08:26:31;98238.94;;;-4.07;67.94
41703;BME280;861;48.808;9.006;2022-12-18T08:29:00;98250.41;;;-3.97;68.15
41703;BME280;861;48.808;9.006;2022-12-18T08:31:29;98243.28;;;-3.61;67.55
41703;BME280;861;48.808;9.006;2022-12-18T08:33:57;98249.97;;;-3.44;67.54
41703;BME280;861;48.808;9.006;2022-12-18T08:38:57;98250.22;;;-3.30;67.97
41703;BME280;861;48.808;9.006;2022-12-18T08:41:24;98253.97;;;-3.31;68.48
41703;BME280;861;48.808;9.006;2022-12-18T08:43:50;98253.16;;;-3.37;68.78
41703;BME280;861;48.808;9.006;2022-12-18T08:46:43;98256.34;;;-3.25;68.98
41703;BME280;861;48.808;9.006;2022-12-18T08:49:11;98250.69;;;-2.83;67.69
41703;BME280;861;48.808;9.006;2022-12-18T08:51:39;98255.00;;;-2.87;68.30
41703;BME280;861;48.808;9.006;2022-12-18T08:54:06;98251.19;;;-2.56;67.73
41703;BME280;861;48.808;9.006;2022-12-18T08:56:34;98239.06;;;-2.28;67.06
41703;BME280;861;48.808;9.006;2022-12-18T08:59:01;98240.41;;;-2.31;68.04
41703;BME280;861;48.808;9.006;2022-12-18T09:01:28;98236.94;;;-2.26;67.57
41703;BME280;861;48.808;9.006;2022-12-18T09:03:54;98231.25;;;-2.10;66.66
41703;BME280;861;48.808;9.006;2022-12-18T09:06:23;98236.19;;;-2.37;67.00
41703;BME280;861;48.808;9.006;2022-12-18T09:08:50;98235.44;;;-2.52;67.89
41703;BME280;861;48.808;9.006;2022-12-18T09:11:26;98242.63;;;-2.48;68.48
41703;BME280;861;48.808;9.006;2022-12-18T09:13:55;98225.97;;;-2.20;67.83
41703;BME280;861;48.808;9.006;2022-12-18T09:16:25;98212.94;;;-1.83;66.62
41703;BME280;861;48.808;9.006;2022-12-18T09:18:56;98213.53;;;-1.52;66.04
41703;BME280;861;48.808;9.006;2022-12-18T09:21:30;98213.56;;;-1.23;65.61
41703;BME280;861;48.808;9.006;2022-12-18T09:23:59;98214.16;;;-0.98;65.22
41703;BME280;861;48.808;9.006;2022-12-18T09:26:27;98213.63;;;-1.00;65.22
41703;BME280;861;48.808;9.006;2022-12-18T09:28:54;98211.81;;;-0.81;64.45
41703;BME280;861;48.808;9.006;2022-12-18T09:31:24;98204.47;;;-0.94;64.70
41703;BME280;861;48.808;9.006;2022-12-18T09:33:51;98201.22;;;-0.91;64.85
41703;BME280;861;48.808;9.006;2022-12-18T09:36:18;98207.66;;;-0.92;65.24
41703;BME280;861;48.808;9.006;2022-12-18T09:38:45;98210.22;;;-0.58;64.13
41703;BME280;861;48.808;9.006;2022-12-18T09:41:51;98210.13;;;-0.48;64.20
41703;BME280;861;48.808;9.006;2022-12-18T09:44:41;98204.19;;;-0.03;63.15
41703;BME280;861;48.808;9.006;2022-12-18T09:47:28;98201.03;;;0.14;63.07
41703;BME280;861;48.808;9.006;2022-12-18T09:50:30;98199.91;;;0.33;62.47
41703;BME280;861;48.808;9.006;2022-12-18T09:53:13;98207.84;;;0.06;62.68
41703;BME280;861;48.808;9.006;2022-12-18T09:55:50;98204.34;;;0.24;62.08
41703;BME280;861;48.808;9.006;2022-12-18T09:58:40;98208.84;;;0.10;63.10
41703;BME280;861;48.808;9.006;2022-12-18T10:01:22;98205.00;;;0.16;62.44
41703;BME280;861;48.808;9.006;2022-12-18T10:03:51;98199.56;;;0.21;63.24
41703;BME280;861;48.808;9.006;2022-12-18T10:06:59;98210.63;;;0.33;63.23
41703;BME280;861;48.808;9.006;2022-12-18T10:13:24;98213.13;;;0.80;63.35
41703;BME280;861;48.808;9.006;2022-12-18T10:16:10;98217.09;;;0.83;62.56
41703;BME280;861;48.808;9.006;2022-12-18T10:19:20;98219.22;;;0.67;61.96
41703;BME280;861;48.808;9.006;2022-12-18T10:22:48;98217.38;;;0.12;63.81
41703;BME280;861;48.808;9.006;2022-12-18T10:25:57;98224.69;;;0.44;63.28
41703;BME280;861;48.808;9.006;2022-12-18T10:28:33;98233.50;;;0.63;62.59
41703;BME280;861;48.808;9.006;2022-12-18T10:31:20;98229.16;;;0.67;62.60
41703;BME280;861;48.808;9.006;2022-12-18T10:33:48;98221.09;;;0.67;62.74
41703;BME280;861;48.808;9.006;2022-12-18T10:36:16;98215.47;;;1.00;62.18
41703;BME280;861;48.808;9.006;2022-12-18T10:38:42;98214.13;;;0.98;62.37
41703;BME280;861;48.808;9.006;2022-12-18T10:43:44;98204.78;;;1.27;61.76
41703;BME280;861;48.808;9.006;2022-12-18T10:48:53;98217.53;;;2.25;60.18
41703;BME280;861;48.808;9.006;2022-12-18T10:51:37;98222.97;;;2.34;59.22
41703;BME280;861;48.808;9.006;2022-12-18T10:54:21;98211.41;;;2.33;58.49
41703;BME280;861;48.808;9.006;2022-12-18T10:56:49;98215.31;;;2.41;57.87
41703;BME280;861;48.808;9.006;2022-12-18T10:59:18;98212.53;;;2.32;59.52
41703;BME280;861;48.808;9.006;2022-12-18T11:01:56;98200.31;;;2.26;58.57
41703;BME280;861;48.808;9.006;2022-12-18T11:04:31;98202.03;;;2.09;59.08
41703;BME280;861;48.808;9.006;2022-12-18T11:07:07;98199.03;;;2.24;59.41
41703;BME280;861;48.808;9.006;2022-12-18T11:09:40;98196.84;;;2.70;57.61
41703;BME280;861;48.808;9.006;2022-12-18T11:12:22;98191.28;;;2.66;57.00
41703;BME280;861;48.808;9.006;2022-12-18T11:14:54;98182.84;;;3.03;56.72
41703;BME280;861;48.808;9.006;2022-12-18T11:17:35;98178.94;;;2.87;56.69
41703;BME280;861;48.808;9.006;2022-12-18T11:20:32;98186.19;;;2.87;57.27
41703;BME280;861;48.808;9.006;2022-12-18T11:23:11;98189.28;;;2.72;56.66
41703;BME280;861;48.808;9.006;2022-12-18T11:25:58;98181.91;;;3.08;56.66
41703;BME280;861;48.808;9.006;2022-12-18T11:31:27;98179.59;;;3.54;54.00
41703;BME280;861;48.808;9.006;2022-12-18T11:34:27;98186.19;;;3.40;55.41
41703;BME280;861;48.808;9.006;2022-12-18T11:37:03;98178.28;;;3.43;54.68
41703;BME280;861;48.808;9.006;2022-12-18T11:40:00;98174.91;;;3.29;54.16
41703;BME280;861;48.808;9.006;2022-12-18T11:43:26;98168.47;;;3.47;54.79
41703;BME280;861;48.808;9.006;2022-12-18T11:46:32;98169.97;;;3.70;54.69
41703;BME280;861;48.808;9.006;2022-12-18T11:49:34;98163.56;;;3.49;54.13
41703;BME280;861;48.808;9.006;2022-12-18T11:52:26;98167.66;;;4.03;52.24
41703;BME280;861;48.808;9.006;2022-12-18T11:55:12;98166.75;;;3.51;55.07
41703;BME280;861;48.808;9.006;2022-12-18T12:00:59;98155.75;;;3.87;53.53
41703;BME280;861;48.808;9.006;2022-12-18T12:11:05;98148.81;;;4.37;51.75
41703;BME280;861;48.808;9.006;2022-12-18T12:14:03;98136.25;;;4.07;53.51
41703;BME280;861;48.808;9.006;2022-12-18T12:20:23;98132.16;;;4.26;53.68
41703;BME280;861;48.808;9.006;2022-12-18T12:23:32;98124.88;;;4.27;52.64
41703;BME280;861;48.808;9.006;2022-12-18T12:30:20;98145.00;;;4.29;52.77
41703;BME280;861;48.808;9.006;2022-12-18T12:40:03;98147.38;;;4.22;53.46
41703;BME280;861;48.808;9.006;2022-12-18T12:42:46;98146.28;;;4.40;55.77
41703;BME280;861;48.808;9.006;2022-12-18T12:45:54;98142.50;;;5.05;53.50
41703;BME280;861;48.808;9.006;2022-12-18T12:48:51;98146.22;;;4.92;52.92
41703;BME280;861;48.808;9.006;2022-12-18T12:51:30;98156.25;;;4.57;53.07
41703;BME280;861;48.808;9.006;2022-12-18T12:54:05;98159.75;;;4.57;53.39
41703;BME280;861;48.808;9.006;2022-12-18T12:57:20;98153.09;;;4.29;54.76
41703;BME280;861;48.808;9.006;2022-12-18T13:00:16;98158.94;;;4.23;54.18
41703;BME280;861;48.808;9.006;2022-12-18T13:04:08;98168.78;;;4.36;54.16
41703;BME280;861;48.808;9.006;2022-12-18T13:07:14;98166.72;;;4.41;53.52
41703;BME280;861;48.808;9.006;2022-12-18T13:10:14;98165.78;;;4.29;53.92
41703;BME280;861;48.808;9.006;2022-12-18T13:13:10;98154.03;;;4.50;53.17
41703;BME280;861;48.808;9.006;2022-12-18T13:16:06;98160.38;;;4.54;53.28
41703;BME280;861;48.808;9.006;2022-12-18T13:18:35;98160.22;;;4.59;52.56
41703;BME280;861;48.808;9.006;2022-12-18T13:21:33;98155.94;;;4.41;53.42
41703;BME280;861;48.808;9.006;2022-12-18T13:24:30;98149.09;;;4.52;53.73
41703;BME280;861;48.808;9.006;2022-12-18T13:26:57;98139.75;;;4.76;53.40
41703;BME280;861;48.808;9.006;2022-12-18T13:29:46;98130.84;;;4.66;53.67
41703;BME280;861;48.808;9.006;2022-12-18T13:32:25;98138.66;;;4.42;53.39
41703;BME280;861;48.808;9.006;2022-12-18T13:37:54;98141.34;;;4.34;54.25
41703;BME280;861;48.808;9.006;2022-12-18T13:43:22;98134.56;;;4.36;54.11
41703;BME280;861;48.808;9.006;2022-12-18T13:46:45;98132.63;;;4.11;55.26
41703;BME280;861;48.808;9.006;2022-12-18T13:51:52;98129.69;;;3.09;58.48
41703;BME280;861;48.808;9.006;2022-12-18T13:54:42;98120.97;;;3.60;59.46
41703;BME280;861;48.808;9.006;2022-12-18T13:57:47;98127.41;;;4.15;56.65
41703;BME280;861;48.808;9.006;2022-12-18T14:02:50;98143.75;;;4.44;55.75
41703;BME280;861;48.808;9.006;2022-12-18T14:05:31;98133.09;;;3.96;55.69
41703;BME280;861;48.808;9.006;2022-12-18T14:08:10;98128.66;;;4.00;56.38
41703;BME280;861;48.808;9.006;2022-12-18T14:10:48;98130.53;;;3.91;56.27
41703;BME280;861;48.808;9.006;2022-12-18T14:13:41;98134.69;;;3.33;57.73
41703;BME280;861;48.808;9.006;2022-12-18T14:16:15;98129.66;;;3.40;57.54
41703;BME280;861;48.808;9.006;2022-12-18T14:18:53;98135.84;;;3.40;57.99
41703;BME280;861;48.808;9.006;2022-12-18T14:21:28;98143.75;;;3.45;58.39
41703;BME280;861;48.808;9.006;2022-12-18T14:24:19;98141.28;;;3.66;57.11
41703;BME280;861;48.808;9.006;2022-12-18T14:26:51;98135.22;;;3.43;57.88
41703;BME280;861;48.808;9.006;2022-12-18T14:29:30;98137.59;;;3.53;58.13
41703;BME280;861;48.808;9.006;2022-12-18T14:32:15;98142.84;;;3.58;57.65
41703;BME280;861;48.808;9.006;2022-12-18T14:34:50;98142.84;;;3.58;58.26
41703;BME280;861;48.808;9.006;2022-12-18T14:37:27;98136.47;;;3.46;58.27
41703;BME280;861;48.808;9.006;2022-12-18T14:40:02;98139.06;;;3.20;57.95
41703;BME280;861;48.808;9.006;2022-12-18T14:42:31;98139.88;;;2.90;59.22
41703;BME280;861;48.808;9.006;2022-12-18T14:45:45;98153.88;;;3.09;58.62
41703;BME280;861;48.808;9.006;2022-12-18T14:48:32;98155.81;;;3.08;58.44
41703;BME280;861;48.808;9.006;2022-12-18T14:53:57;98142.03;;;2.79;59.33
41703;BME280;861;48.808;9.006;2022-12-18T14:56:41;98154.44;;;2.67;58.87
41703;BME280;861;48.808;9.006;2022-12-18T14:59:24;98152.06;;;2.43;59.82
41703;BME280;861;48.808;9.006;2022-12-18T15:02:27;98147.22;;;2.10;61.11
41703;BME280;861;48.808;9.006;2022-12-18T15:07:50;98146.94;;;2.33;60.83
41703;BME280;861;48.808;9.006;2022-12-18T15:10:48;98145.84;;;2.34;59.90
41703;BME280;861;48.808;9.006;2022-12-18T15:13:25;98144.88;;;1.95;60.86
41703;BME280;861;48.808;9.006;2022-12-18T15:15:57;98137.94;;;1.94;60.82
41703;BME280;861;48.808;9.006;2022-12-18T15:18:42;98134.34;;;1.98;60.92
41703;BME280;861;48.808;9.006;2022-12-18T15:21:19;98148.72;;;1.67;61.73
41703;BME280;861;48.808;9.006;2022-12-18T15:23:51;98149.34;;;1.23;62.53
41703;BME280;861;48.808;9.006;2022-12-18T15:26:22;98138.47;;;1.55;61.83
41703;BME280;861;48.808;9.006;2022-12-18T15:28:55;98138.88;;;1.48;61.62
41703;BME280;861;48.808;9.006;2022-12-18T15:31:29;98148.31;;;1.59;61.60